Aviation Digital Data Service (ADDS)

Output produced by METARs form (0007 UTC 04 March 2015)
found at http://aviationweather.gov/adds/metars/
 
KECG 032340Z 0400/0424 13005KT P6SM OVC035 
     TEMPO 0400/0403 -RA OVC025 
     FM040300 20007KT 4SM -RA BR OVC015 
     FM040500 22011KT 3SM -DZ BR OVC008 
     FM041500 24016G24KT P6SM VCSH OVC025